< < Back
Terminal Aerodrome Forecast


Current Version              Previous Versions:   1  2  3  4  5  6  7  8  9  

Terminal Aerodrome Forecast

972
FTUS42 KGSP 072328
TAFAND
TAF
KAND 072328Z 0800/0824 25003KT P6SM FEW250
     FM081300 22005KT P6SM BKN050
     FM081600 23009KT P6SM BKN040
     FM081800 23011G19KT P6SM BKN040 PROB30 0818/0823 4SM -SHRA
      BKN025
     FM082300 26012G21KT P6SM BKN110=

Latest METAR

655
SAUS70 KWBC 080800 RRB
MTRAND
METAR KAND 080756Z AUTO 23005KT 10SM CLR 04/M04 A2988 RMK AO2 SLP116
T00391044


USA.gov is the U.S. government's official web portal to all federal, state and local government web resources and services.